createdAt,value
2023-03-24T00:09:11.378Z,6.50
2023-03-24T00:23:11.275Z,6.90
2023-03-24T00:37:11.302Z,7.30
2023-03-24T00:51:11.302Z,7.50
2023-03-24T01:05:12.433Z,7.40
2023-03-24T01:19:11.318Z,8.20
2023-03-24T01:33:11.318Z,7.90
2023-03-24T01:47:11.325Z,7.80
2023-03-24T02:01:11.378Z,8.00
2023-03-24T02:15:11.362Z,7.90
2023-03-24T02:29:11.381Z,8.00
2023-03-24T02:43:11.529Z,7.90
2023-03-24T02:57:11.426Z,7.80
2023-03-24T03:11:11.424Z,7.90
2023-03-24T03:25:11.440Z,8.20
2023-03-24T03:39:11.453Z,7.80
2023-03-24T03:53:11.470Z,7.80
2023-03-24T04:07:11.486Z,7.20
2023-03-24T04:21:11.488Z,7.20
2023-03-24T04:35:12.724Z,7.20
2023-03-24T04:49:11.523Z,7.10
2023-03-24T05:03:11.563Z,7.10
2023-03-24T05:18:11.569Z,7.40
2023-03-24T05:32:11.683Z,7.50
2023-03-24T05:47:11.589Z,6.90
2023-03-24T06:02:11.634Z,6.80
2023-03-24T06:17:11.649Z,6.40
2023-03-24T06:32:11.643Z,5.90
2023-03-24T06:45:11.921Z,6.00
2023-03-24T06:57:11.686Z,5.80
2023-03-24T07:09:12.276Z,5.40
2023-03-24T07:21:11.656Z,5.20
2023-03-24T07:33:11.689Z,5.30
2023-03-24T07:45:11.825Z,5.70
2023-03-24T07:57:11.856Z,6.25
2023-03-24T08:09:11.819Z,6.80
2023-03-24T08:21:11.842Z,6.90
2023-03-24T08:33:12.502Z,6.80
2023-03-24T08:45:11.854Z,7.30
2023-03-24T08:57:11.853Z,7.50
2023-03-24T09:09:11.847Z,6.90
2023-03-24T09:21:11.860Z,6.70
2023-03-24T09:33:11.914Z,6.90
2023-03-24T09:45:11.901Z,8.70
2023-03-24T09:57:11.988Z,9.30
2023-03-24T10:09:11.916Z,9.80
2023-03-24T10:21:12.705Z,9.50
2023-03-24T10:33:11.948Z,9.50
2023-03-24T10:45:11.951Z,8.90
2023-03-24T10:57:12.023Z,7.75
2023-03-24T11:09:11.964Z,7.70
2023-03-24T11:21:11.983Z,7.90
2023-03-24T11:33:12.007Z,7.70
2023-03-24T11:45:12.006Z,7.80
2023-03-24T11:57:12.074Z,7.40
2023-03-24T12:09:12.018Z,7.40
2023-03-24T12:21:12.037Z,7.90
2023-03-24T12:33:12.044Z,8.00
2023-03-24T12:45:12.056Z,7.70
2023-03-24T12:57:12.156Z,7.30
2023-03-24T13:09:12.100Z,7.70
2023-03-24T13:21:12.117Z,7.50
2023-03-24T13:33:12.172Z,7.40
2023-03-24T13:45:12.146Z,7.50
2023-03-24T13:57:12.057Z,7.40
2023-03-24T14:09:12.165Z,7.80
2023-03-24T14:21:12.161Z,9.00
2023-03-24T14:33:12.181Z,7.90
2023-03-24T14:45:14.044Z,7.30
2023-03-24T14:57:13.325Z,7.00
2023-03-24T15:09:12.095Z,7.30
2023-03-24T15:21:13.221Z,6.80
2023-03-24T15:33:12.226Z,6.30
2023-03-24T15:45:12.164Z,7.00
2023-03-24T15:57:12.160Z,6.20
2023-03-24T16:09:12.160Z,6.70
2023-03-24T16:21:12.304Z,7.10
2023-03-24T16:33:12.344Z,7.40
2023-03-24T16:45:12.340Z,7.70
2023-03-24T16:57:12.364Z,7.30
2023-03-24T17:09:12.346Z,7.00
2023-03-24T17:21:12.438Z,6.40
2023-03-24T17:33:12.435Z,6.10
2023-03-24T17:45:12.387Z,6.50
2023-03-24T17:57:12.621Z,5.90
2023-03-24T18:09:13.500Z,6.25
2023-03-24T18:21:12.514Z,5.90
2023-03-24T18:33:13.096Z,7.20
2023-03-24T18:45:13.442Z,7.50
2023-03-24T18:57:13.680Z,7.60
2023-03-24T19:09:12.449Z,7.70
2023-03-24T19:21:13.352Z,8.20
2023-03-24T19:33:12.476Z,11.15
2023-03-24T19:45:12.481Z,18.00
2023-03-24T19:57:12.466Z,22.00
2023-03-24T20:09:12.480Z,22.80
2023-03-24T20:21:12.485Z,25.40
2023-03-24T20:33:12.515Z,27.90
2023-03-24T20:45:12.518Z,28.60
2023-03-24T20:57:12.676Z,29.60
2023-03-24T22:51:38.614Z,22.50
